Quito, Tennessee
Current Conditions -  °F | °C
As of 3:55 AM on Friday 28 Nov 2014 (Local Time) from KNQA Reporting Station
Clear Clear  
Wind Chill: 25°   Ceiling: Unl
Heat Index: 25°   Visibility: 10mi
Dew Point: 23°   Wind: 3mph
Humidity: 93%   Direction: 120°ESE
Pressure: 30.42"   Gusts: NA
Location:  35.3343°N, 89.9316°W
Report Text: KNQA 280955Z AUTO 12003KT 10SM CLR M04/M05 A3042 RMK
Loading
Personal Weather Stations






























Interactive Weather Map New forecast layout! Learn more

10-Day Weather Forecast

Advertisements
Track Severe Weather on mobile